Time;durP1;ratioP1;P1;durP2;ratioP2;P2;SDS_P1;SDS_P2;PMS_P1;PMS_P2;Temp;Humidity;BMP_temperature;BMP_pressure;BME280_temperature;BME280_humidity;BME280_pressure;Samples;Min_cycle;Max_cycle;Signal;HPM_P1;HPM_P2
2023/03/26 00:01:37;;;;;;;19.30;4.10;;;7.00;99.90;;;;;;5034445;28;20048;-63
2023/03/26 00:04:05;;;;;;;13.30;3.40;;;6.90;99.90;;;;;;4999631;28;20072;-63
2023/03/26 00:06:36;;;;;;;21.38;3.70;;;6.90;99.90;;;;;;5034604;28;20037;-63
2023/03/26 00:09:04;;;;;;;13.55;4.13;;;6.90;99.90;;;;;;5016213;28;20045;-63
2023/03/26 00:11:29;;;;;;;16.35;4.95;;;6.90;99.90;;;;;;5015605;28;20620;-63
2023/03/26 00:13:56;;;;;;;16.42;4.43;;;6.90;99.90;;;;;;5034087;28;20117;-62
2023/03/26 00:16:23;;;;;;;18.00;4.20;;;6.90;99.90;;;;;;5016049;28;20394;-63
2023/03/26 00:18:50;;;;;;;26.55;5.30;;;6.90;99.90;;;;;;5033421;28;20489;-63
2023/03/26 00:21:26;;;;;;;17.08;3.78;;;6.90;99.90;;;;;;5033662;28;20041;-62
2023/03/26 00:23:53;;;;;;;13.70;4.03;;;6.90;99.90;;;;;;5016263;28;20091;-62
2023/03/26 00:26:22;;;;;;;18.25;4.07;;;6.90;99.90;;;;;;5032689;28;20042;-63
2023/03/26 00:28:49;;;;;;;16.92;4.78;;;6.90;99.90;;;;;;5033805;28;20508;-62
2023/03/26 00:31:16;;;;;;;17.80;4.03;;;6.90;99.90;;;;;;5033691;28;20398;-63
2023/03/26 00:33:42;;;;;;;18.08;4.05;;;6.90;99.90;;;;;;5015439;28;20140;-63
2023/03/26 00:36:13;;;;;;;11.80;3.83;;;6.90;99.90;;;;;;4999327;28;20120;-63
2023/03/26 00:38:39;;;;;;;16.98;4.38;;;7.00;99.90;;;;;;5033027;28;20072;-62
2023/03/26 00:41:21;;;;;;;10.80;4.20;;;6.90;99.90;;;;;;5015278;28;20100;-63
2023/03/26 00:43:50;;;;;;;16.30;4.43;;;6.90;99.90;;;;;;5016054;28;20053;-63
2023/03/26 00:46:16;;;;;;;15.32;3.88;;;6.90;99.90;;;;;;5014464;28;20037;-63
2023/03/26 00:48:42;;;;;;;14.25;3.70;;;6.90;99.90;;;;;;4999575;28;20046;-63
2023/03/26 00:51:09;;;;;;;21.42;6.03;;;6.90;99.90;;;;;;5015377;28;20091;-63
2023/03/26 00:53:37;;;;;;;15.70;3.38;;;6.80;99.90;;;;;;5032618;28;20479;-62
2023/03/26 00:56:07;;;;;;;15.75;4.00;;;6.90;99.90;;;;;;5014983;28;20089;-63
2023/03/26 00:58:32;;;;;;;14.18;3.22;;;6.80;99.90;;;;;;5015853;28;20482;-63
2023/03/26 01:01:04;;;;;;;14.80;4.28;;;6.80;99.90;;;;;;5032621;28;20052;-63
2023/03/26 01:03:35;;;;;;;17.35;3.78;;;6.80;99.90;;;;;;5033207;28;20052;-63
2023/03/26 01:06:11;;;;;;;14.18;3.75;;;6.70;99.90;;;;;;5017772;28;20036;-62
2023/03/26 01:08:45;;;;;;;12.43;4.03;;;6.70;99.90;;;;;;5016528;28;20371;-63
2023/03/26 01:11:24;;;;;;;16.05;4.65;;;6.70;99.90;;;;;;5034871;28;20052;-63
2023/03/26 01:13:56;;;;;;;14.13;4.13;;;6.60;99.90;;;;;;5052436;28;20037;-63
2023/03/26 01:16:40;;;;;;;17.30;5.68;;;6.60;99.90;;;;;;5034941;28;20121;-63
2023/03/26 01:19:15;;;;;;;24.75;6.18;;;6.70;99.90;;;;;;5014809;28;20049;-63
2023/03/26 01:21:41;;;;;;;18.33;4.88;;;6.70;99.90;;;;;;4998549;28;20498;-63
2023/03/26 01:24:08;;;;;;;13.70;4.45;;;6.70;99.90;;;;;;5014928;28;20128;-63
2023/03/26 01:27:03;;;;;;;16.02;3.70;;;6.70;99.90;;;;;;4998860;28;20041;-63
2023/03/26 01:29:48;;;;;;;16.15;4.13;;;6.80;99.90;;;;;;5031910;28;20147;-63
2023/03/26 01:32:39;;;;;;;14.75;3.58;;;6.70;99.90;;;;;;4998409;28;20052;-63
2023/03/26 01:35:20;;;;;;;14.35;3.08;;;6.80;99.90;;;;;;5013850;28;20486;-63
2023/03/26 01:38:10;;;;;;;16.65;4.32;;;6.80;99.90;;;;;;5015274;28;20364;-63
2023/03/26 01:40:45;;;;;;;15.80;4.20;;;6.80;99.90;;;;;;5014697;28;20060;-63
2023/03/26 01:43:20;;;;;;;16.42;4.93;;;6.80;99.90;;;;;;5013423;28;20057;-63
2023/03/26 01:45:48;;;;;;;17.45;5.75;;;6.80;99.90;;;;;;5032477;28;20053;-63
2023/03/26 01:48:14;;;;;;;14.57;3.83;;;6.80;99.90;;;;;;5014132;28;20045;-63
2023/03/26 01:50:40;;;;;;;10.27;2.80;;;6.80;99.90;;;;;;5014189;28;20395;-63
2023/03/26 01:53:08;;;;;;;16.27;3.58;;;6.80;99.90;;;;;;5031975;28;20030;-63
2023/03/26 01:56:00;;;;;;;17.00;4.80;;;6.90;99.90;;;;;;5014736;28;20494;-63
2023/03/26 01:59:03;;;;;;;17.10;4.25;;;6.90;99.90;;;;;;5029666;28;20067;-63
2023/03/26 02:01:43;;;;;;;18.13;3.50;;;6.90;99.90;;;;;;5030831;28;20051;-63
2023/03/26 02:04:12;;;;;;;13.35;3.42;;;6.90;99.90;;;;;;5031009;28;20056;-63
2023/03/26 02:06:45;;;;;;;18.63;4.60;;;6.90;99.90;;;;;;5015816;28;20052;-63
2023/03/26 02:09:18;;;;;;;22.58;5.43;;;6.90;99.90;;;;;;5032896;28;20072;-63
2023/03/26 02:11:46;;;;;;;14.60;3.83;;;6.90;99.90;;;;;;5033571;28;20045;-63
2023/03/26 02:14:13;;;;;;;12.20;3.20;;;6.90;99.90;;;;;;5051582;28;20450;-63
2023/03/26 02:16:39;;;;;;;13.65;4.47;;;6.90;99.90;;;;;;5052166;28;20037;-63
2023/03/26 02:19:14;;;;;;;13.80;4.53;;;6.90;99.90;;;;;;5032730;28;20378;-63
2023/03/26 02:21:41;;;;;;;17.52;4.05;;;6.90;99.90;;;;;;5034221;28;20478;-63
2023/03/26 02:24:06;;;;;;;15.02;3.88;;;6.90;99.90;;;;;;5033206;28;20394;-63
2023/03/26 02:26:36;;;;;;;19.25;4.03;;;6.90;99.90;;;;;;5051911;28;20047;-63
2023/03/26 02:29:02;;;;;;;11.18;3.75;;;6.80;99.90;;;;;;5051929;28;20045;-63
2023/03/26 02:31:28;;;;;;;16.48;5.10;;;6.90;99.90;;;;;;5032982;28;20033;-63
2023/03/26 02:33:55;;;;;;;13.02;4.03;;;6.80;99.90;;;;;;5051493;28;20091;-63
2023/03/26 02:36:26;;;;;;;15.93;4.15;;;6.80;99.90;;;;;;5051398;28;20045;-63
2023/03/26 02:38:52;;;;;;;21.15;5.10;;;6.80;99.90;;;;;;5033633;28;20049;-63
2023/03/26 02:41:18;;;;;;;15.70;4.25;;;6.90;99.90;;;;;;5016730;28;20048;-63
2023/03/26 02:43:44;;;;;;;15.68;4.57;;;6.90;99.90;;;;;;5034127;28;20036;-63
2023/03/26 02:46:10;;;;;;;25.17;4.10;;;6.80;99.90;;;;;;5016091;28;20138;-63
2023/03/26 02:48:35;;;;;;;19.35;4.88;;;6.80;99.90;;;;;;5051665;28;20044;-63
2023/03/26 02:51:02;;;;;;;16.60;3.45;;;6.80;99.90;;;;;;5051453;28;20119;-63
2023/03/26 02:53:28;;;;;;;13.40;3.92;;;6.80;99.90;;;;;;5016419;28;20037;-63
2023/03/26 02:55:55;;;;;;;16.42;4.35;;;6.70;99.90;;;;;;5034278;28;20045;-63
2023/03/26 02:58:24;;;;;;;15.35;4.15;;;6.70;99.90;;;;;;5033004;28;20131;-63
2023/03/26 03:00:53;;;;;;;21.92;4.28;;;6.70;99.90;;;;;;5033029;28;20048;-63
2023/03/26 03:03:26;;;;;;;19.00;4.10;;;6.70;99.90;;;;;;5033064;28;20478;-63
2023/03/26 03:05:53;;;;;;;11.05;3.22;;;6.60;99.90;;;;;;5033536;28;20040;-63
2023/03/26 03:08:27;;;;;;;13.98;3.67;;;6.60;99.90;;;;;;5015950;28;20071;-63
2023/03/26 03:10:56;;;;;;;10.73;3.25;;;6.60;99.90;;;;;;5051914;28;20116;-62
2023/03/26 03:13:22;;;;;;;17.92;6.07;;;6.50;99.90;;;;;;5050029;28;20064;-63
2023/03/26 03:15:48;;;;;;;18.15;6.40;;;6.50;99.90;;;;;;5033712;28;20439;-63
2023/03/26 03:18:14;;;;;;;16.38;5.22;;;6.50;99.90;;;;;;5033151;28;20040;-63
2023/03/26 03:20:40;;;;;;;19.00;4.47;;;6.40;99.90;;;;;;5035508;28;20084;-63
2023/03/26 03:23:06;;;;;;;16.80;5.07;;;6.40;99.90;;;;;;5036388;28;20081;-63
2023/03/26 03:25:32;;;;;;;12.13;3.65;;;6.40;99.90;;;;;;5037379;28;20064;-63
2023/03/26 03:27:59;;;;;;;13.90;4.15;;;6.40;99.90;;;;;;5036398;28;20124;-63
2023/03/26 03:30:24;;;;;;;13.68;4.15;;;6.40;99.90;;;;;;5036354;28;20516;-63
2023/03/26 03:32:50;;;;;;;17.10;5.32;;;6.30;99.90;;;;;;5037058;28;20040;-63
2023/03/26 03:35:16;;;;;;;27.08;11.23;;;6.30;99.90;;;;;;5053700;28;20037;-63
2023/03/26 03:37:41;;;;;;;29.02;12.77;;;6.30;99.90;;;;;;5037349;28;20044;-63
2023/03/26 03:40:09;;;;;;;118.38;69.45;;;6.30;99.90;;;;;;5036200;28;20522;-63
2023/03/26 03:42:35;;;;;;;79.03;40.70;;;6.30;99.90;;;;;;5033993;28;20146;-63
2023/03/26 03:45:05;;;;;;;68.25;35.00;;;6.20;99.90;;;;;;5023338;28;20556;-63
2023/03/26 03:47:31;;;;;;;26.70;11.60;;;6.20;99.90;;;;;;5016987;28;20037;-63
2023/03/26 03:49:58;;;;;;;175.18;90.40;;;6.20;99.90;;;;;;5016262;28;20048;-63
2023/03/26 03:52:26;;;;;;;48.50;21.55;;;6.10;99.90;;;;;;5034179;28;20103;-63
2023/03/26 03:54:51;;;;;;;21.65;7.38;;;6.10;99.90;;;;;;5033426;28;20037;-63
2023/03/26 03:57:17;;;;;;;22.85;9.63;;;6.20;99.90;;;;;;5015459;28;20383;-63
2023/03/26 03:59:43;;;;;;;156.98;76.50;;;6.20;99.90;;;;;;5016903;28;20049;-63
2023/03/26 04:02:09;;;;;;;353.05;178.80;;;6.20;99.90;;;;;;5046589;28;20041;-63
2023/03/26 04:04:36;;;;;;;77.20;35.88;;;6.20;99.90;;;;;;5033743;28;20034;-63
2023/03/26 04:07:03;;;;;;;39.00;16.58;;;6.20;99.90;;;;;;5034170;28;20080;-62
2023/03/26 04:09:29;;;;;;;36.75;16.35;;;6.20;99.90;;;;;;5033785;28;20566;-63
2023/03/26 04:11:55;;;;;;;18.65;6.45;;;6.20;99.90;;;;;;5000530;28;20116;-63
2023/03/26 04:14:21;;;;;;;14.15;4.18;;;6.20;99.90;;;;;;5032658;28;20037;-62
2023/03/26 04:16:47;;;;;;;14.80;5.00;;;6.20;99.90;;;;;;5015995;28;20045;-63
2023/03/26 04:19:14;;;;;;;10.75;3.47;;;6.20;99.90;;;;;;4999508;28;20552;-63
2023/03/26 04:21:41;;;;;;;16.30;4.50;;;6.20;99.90;;;;;;5016501;28;20162;-63
2023/03/26 04:24:08;;;;;;;12.18;3.90;;;6.20;99.90;;;;;;5032763;28;20037;-63
2023/03/26 04:26:34;;;;;;;17.00;4.75;;;6.30;99.90;;;;;;5050324;28;20045;-63
2023/03/26 04:29:04;;;;;;;10.95;2.83;;;6.20;99.90;;;;;;5019519;28;20044;-63
2023/03/26 04:31:30;;;;;;;15.48;3.75;;;6.20;99.90;;;;;;5052226;28;20040;-62
2023/03/26 04:34:04;;;;;;;13.35;3.92;;;6.20;99.90;;;;;;5035891;28;20490;-63
2023/03/26 04:36:32;;;;;;;18.27;4.30;;;6.20;99.90;;;;;;5035135;28;20044;-63
2023/03/26 04:39:02;;;;;;;16.17;3.97;;;6.10;99.90;;;;;;5053021;28;20059;-63
2023/03/26 04:41:29;;;;;;;16.13;3.40;;;6.10;99.90;;;;;;5035782;28;20394;-63
2023/03/26 04:43:55;;;;;;;14.25;3.60;;;6.10;99.90;;;;;;5019140;28;20037;-63
2023/03/26 04:46:22;;;;;;;15.95;3.60;;;6.10;99.90;;;;;;5034515;28;20387;-63
2023/03/26 04:48:50;;;;;;;12.65;3.47;;;6.10;99.90;;;;;;5035761;28;20044;-63
2023/03/26 04:51:17;;;;;;;13.80;3.33;;;6.00;99.90;;;;;;5034568;28;20072;-63
2023/03/26 04:53:58;;;;;;;14.40;3.58;;;6.00;99.90;;;;;;4998836;28;20048;-63
2023/03/26 04:56:46;;;;;;;17.60;3.60;;;6.00;99.90;;;;;;5015391;28;20046;-63
2023/03/26 04:59:17;;;;;;;13.00;4.03;;;5.90;99.90;;;;;;5031935;28;20121;-63
2023/03/26 05:01:44;;;;;;;17.40;4.10;;;5.90;99.90;;;;;;5029080;28;20064;-63
2023/03/26 05:04:12;;;;;;;11.65;3.10;;;5.80;99.90;;;;;;5034861;28;20098;-63
2023/03/26 05:06:40;;;;;;;14.68;3.40;;;5.80;99.90;;;;;;5034526;28;20049;-63
2023/03/26 05:09:07;;;;;;;16.88;3.60;;;5.80;99.90;;;;;;5034422;28;20087;-62
2023/03/26 05:11:33;;;;;;;11.93;3.70;;;5.70;99.90;;;;;;5053177;28;20060;-62
2023/03/26 05:13:59;;;;;;;13.65;2.75;;;5.70;99.90;;;;;;5034696;28;20478;-63
2023/03/26 05:16:25;;;;;;;19.60;3.25;;;5.70;99.90;;;;;;5034815;28;20498;-63
2023/03/26 05:18:51;;;;;;;11.25;3.47;;;5.70;99.90;;;;;;5018595;28;20097;-63
2023/03/26 05:21:17;;;;;;;12.27;3.03;;;5.70;99.90;;;;;;5051458;28;20049;-62
2023/03/26 05:23:42;;;;;;;14.02;2.67;;;5.70;99.90;;;;;;5034940;28;20048;-63
2023/03/26 05:26:09;;;;;;;17.75;3.45;;;5.70;99.90;;;;;;5025866;28;20455;-62
2023/03/26 05:28:35;;;;;;;14.77;2.90;;;5.70;99.90;;;;;;5031857;28;20486;-63
2023/03/26 05:31:01;;;;;;;12.57;3.50;;;5.70;99.90;;;;;;5014912;28;20036;-63
2023/03/26 05:33:27;;;;;;;12.98;3.15;;;5.80;99.90;;;;;;5014807;28;20041;-63
2023/03/26 05:36:14;;;;;;;10.18;4.15;;;5.70;99.90;;;;;;5014234;28;20041;-63
2023/03/26 05:38:40;;;;;;;8.27;3.00;;;5.80;99.90;;;;;;5032913;28;20037;-63
2023/03/26 05:41:07;;;;;;;10.48;2.95;;;5.80;99.90;;;;;;4997015;28;20058;-62
2023/03/26 05:43:34;;;;;;;13.85;4.22;;;5.80;99.90;;;;;;4998579;28;20084;-63
2023/03/26 05:45:59;;;;;;;14.40;3.65;;;5.80;99.90;;;;;;5015011;28;20068;-63
2023/03/26 05:48:26;;;;;;;15.20;3.22;;;5.80;99.90;;;;;;5013808;28;20045;-63
2023/03/26 05:50:54;;;;;;;14.90;3.65;;;5.80;99.90;;;;;;5014833;28;20037;-63
2023/03/26 05:53:22;;;;;;;15.13;3.03;;;5.80;99.90;;;;;;5014398;28;20614;-63
2023/03/26 05:55:49;;;;;;;18.45;3.70;;;5.80;99.90;;;;;;5041075;28;20039;-63
2023/03/26 05:58:15;;;;;;;10.88;2.42;;;5.80;99.90;;;;;;5033947;28;20043;-63
2023/03/26 06:00:42;;;;;;;13.55;3.38;;;5.80;99.90;;;;;;5034443;28;20041;-63
2023/03/26 06:03:11;;;;;;;17.73;4.43;;;5.80;99.90;;;;;;5033161;28;20066;-62
2023/03/26 06:05:38;;;;;;;14.43;3.28;;;5.90;99.90;;;;;;5052027;28;20037;-63
2023/03/26 06:08:05;;;;;;;14.68;3.80;;;5.80;99.90;;;;;;5034068;28;20041;-62
2023/03/26 06:10:31;;;;;;;15.07;2.95;;;5.90;99.90;;;;;;5051193;28;20577;-63
2023/03/26 06:12:56;;;;;;;14.55;3.70;;;5.90;99.90;;;;;;5017853;28;20037;-62
2023/03/26 06:15:23;;;;;;;16.48;5.00;;;5.90;99.90;;;;;;5033658;28;20120;-62
2023/03/26 06:17:48;;;;;;;15.68;3.53;;;6.00;99.90;;;;;;5033778;28;20060;-62
2023/03/26 06:20:14;;;;;;;14.70;3.40;;;6.00;99.90;;;;;;5033530;28;20044;-62
2023/03/26 06:22:41;;;;;;;14.82;2.63;;;6.00;99.90;;;;;;5051960;28;20037;-61
2023/03/26 06:25:07;;;;;;;12.15;4.20;;;6.00;99.90;;;;;;5025896;28;20045;-62
2023/03/26 06:27:32;;;;;;;15.45;3.50;;;6.10;99.90;;;;;;5034116;28;20049;-62
2023/03/26 06:29:58;;;;;;;14.10;3.63;;;6.10;99.90;;;;;;5033940;28;20047;-62
2023/03/26 06:32:24;;;;;;;12.27;3.00;;;6.10;99.90;;;;;;5032766;28;20048;-62
2023/03/26 06:34:49;;;;;;;18.83;6.53;;;6.10;99.90;;;;;;5034039;28;20037;-61
2023/03/26 06:37:15;;;;;;;12.05;3.65;;;6.20;99.90;;;;;;5050791;28;20422;-62
2023/03/26 06:39:41;;;;;;;16.23;3.90;;;6.20;99.90;;;;;;5051590;28;20375;-62
2023/03/26 06:42:07;;;;;;;18.13;3.72;;;6.20;99.90;;;;;;5044392;28;20069;-62
2023/03/26 06:44:33;;;;;;;14.27;3.67;;;6.20;99.90;;;;;;5025298;28;20144;-62
2023/03/26 06:46:58;;;;;;;17.58;4.13;;;6.20;99.90;;;;;;4998447;28;20041;-62
2023/03/26 06:49:24;;;;;;;12.40;3.67;;;6.30;99.90;;;;;;5030092;28;20076;-62
2023/03/26 06:51:50;;;;;;;12.50;2.95;;;6.30;99.90;;;;;;5012586;28;20034;-62
2023/03/26 06:54:16;;;;;;;14.32;3.13;;;6.40;99.90;;;;;;5029521;28;20060;-62
2023/03/26 06:56:41;;;;;;;13.48;3.22;;;6.40;99.90;;;;;;5046954;28;20032;-62
2023/03/26 06:59:07;;;;;;;10.27;3.08;;;6.40;99.90;;;;;;5029747;28;20037;-62
2023/03/26 07:01:33;;;;;;;13.82;3.60;;;6.40;99.90;;;;;;5015770;28;20067;-62
2023/03/26 07:03:59;;;;;;;17.30;3.58;;;6.40;99.90;;;;;;5018386;28;20049;-62
2023/03/26 07:06:25;;;;;;;10.68;3.53;;;6.40;99.90;;;;;;5021721;28;20527;-62
2023/03/26 07:08:51;;;;;;;10.98;2.60;;;6.40;99.90;;;;;;5018617;28;20075;-62
2023/03/26 07:11:18;;;;;;;11.75;3.03;;;6.50;99.90;;;;;;5022291;28;20045;-62
2023/03/26 07:13:46;;;;;;;14.43;3.67;;;6.50;99.90;;;;;;5015000;28;20128;-62
2023/03/26 07:16:12;;;;;;;17.45;2.95;;;6.50;99.90;;;;;;5014641;28;20041;-62
2023/03/26 07:18:38;;;;;;;11.70;3.00;;;6.50;99.90;;;;;;5033152;28;20045;-62
2023/03/26 07:21:04;;;;;;;11.68;3.63;;;6.60;99.90;;;;;;5004034;28;20041;-62
2023/03/26 07:23:30;;;;;;;13.95;3.10;;;6.70;99.90;;;;;;5018195;28;20124;-62
2023/03/26 07:25:56;;;;;;;10.60;2.88;;;6.70;99.90;;;;;;5034848;28;20090;-62
2023/03/26 07:28:35;;;;;;;14.25;3.13;;;6.80;99.90;;;;;;5051209;28;20098;-62
2023/03/26 07:31:33;;;;;;;14.05;3.35;;;6.70;99.90;;;;;;5052575;28;20119;-62
2023/03/26 07:34:29;;;;;;;12.95;3.20;;;6.70;99.90;;;;;;5034125;28;20048;-62
2023/03/26 07:37:14;;;;;;;17.75;3.85;;;6.70;99.90;;;;;;5019594;28;20049;-62
2023/03/26 07:39:51;;;;;;;15.75;2.75;;;6.80;99.90;;;;;;5014562;28;20061;-62
2023/03/26 07:42:34;;;;;;;14.80;3.40;;;6.80;99.90;;;;;;5031894;28;20339;-62
2023/03/26 07:45:15;;;;;;;14.35;2.58;;;6.80;99.90;;;;;;5049572;28;20033;-62
2023/03/26 07:47:43;;;;;;;12.35;3.38;;;6.80;99.90;;;;;;5020501;28;20124;-62
2023/03/26 07:50:15;;;;;;;11.43;2.45;;;6.80;99.90;;;;;;5023463;28;20045;-62
2023/03/26 07:52:41;;;;;;;13.32;3.17;;;6.80;99.90;;;;;;5015659;28;20041;-62
2023/03/26 07:55:11;;;;;;;10.93;2.38;;;6.90;99.90;;;;;;5032720;28;20386;-62
2023/03/26 07:57:51;;;;;;;9.45;2.30;;;6.90;99.90;;;;;;5028212;28;20086;-62
2023/03/26 08:00:27;;;;;;;9.45;2.20;;;7.00;99.90;;;;;;5044740;28;20147;-62
2023/03/26 08:03:11;;;;;;;16.15;2.67;;;7.00;99.90;;;;;;5022104;28;20128;-62
2023/03/26 08:05:43;;;;;;;12.82;3.15;;;7.10;99.90;;;;;;5018568;28;20033;-62
2023/03/26 08:08:52;;;;;;;14.23;2.90;;;7.20;99.90;;;;;;5034499;28;20053;-62
2023/03/26 08:11:29;;;;;;;8.77;3.25;;;7.40;99.90;;;;;;4932998;29;20050;-62
2023/03/26 08:14:14;;;;;;;10.20;2.38;;;7.50;99.90;;;;;;5026729;28;20553;-62
2023/03/26 08:17:09;;;;;;;7.43;2.53;;;7.50;99.90;;;;;;5024098;28;20486;-62
2023/03/26 08:19:37;;;;;;;9.70;2.97;;;7.50;99.90;;;;;;5014020;28;20049;-62
2023/03/26 08:22:16;;;;;;;11.43;2.90;;;7.50;99.90;;;;;;5050154;28;20051;-62
2023/03/26 08:25:00;;;;;;;12.25;2.67;;;7.30;99.90;;;;;;5031590;28;20482;-62
2023/03/26 08:27:31;;;;;;;13.98;4.45;;;7.40;99.90;;;;;;5033158;28;20041;-62
2023/03/26 08:30:17;;;;;;;19.05;6.65;;;7.30;99.90;;;;;;5015361;28;20053;-62
2023/03/26 08:32:58;;;;;;;9.27;3.10;;;7.40;99.90;;;;;;5015682;28;20076;-62
2023/03/26 08:35:25;;;;;;;12.98;4.70;;;7.40;99.90;;;;;;5041155;28;20547;-62
2023/03/26 08:37:52;;;;;;;15.52;3.88;;;7.40;99.90;;;;;;5016163;28;20578;-62
2023/03/26 08:40:56;;;;;;;12.30;3.38;;;7.40;99.90;;;;;;5015571;28;20065;-62
2023/03/26 08:43:52;;;;;;;14.60;3.95;;;7.40;99.90;;;;;;5018098;28;20052;-62
2023/03/26 08:46:44;;;;;;;15.95;3.72;;;7.30;99.90;;;;;;5017517;28;20084;-62
2023/03/26 08:49:12;;;;;;;8.23;2.88;;;7.30;99.90;;;;;;5035282;28;20061;-62
2023/03/26 08:52:05;;;;;;;14.52;3.30;;;7.30;99.90;;;;;;5050028;28;20060;-62
2023/03/26 08:54:51;;;;;;;15.40;2.55;;;7.50;99.90;;;;;;5017170;28;20048;-62
2023/03/26 08:57:40;;;;;;;13.32;2.90;;;7.60;99.90;;;;;;4996872;28;20717;-62
2023/03/26 09:00:30;;;;;;;11.15;3.00;;;7.70;99.90;;;;;;5014477;28;20394;-62
2023/03/26 09:03:20;;;;;;;18.60;4.32;;;7.90;99.90;;;;;;5045779;28;20048;-62
2023/03/26 09:06:10;;;;;;;15.02;3.22;;;7.90;99.90;;;;;;5031335;28;20056;-62
2023/03/26 09:09:03;;;;;;;9.60;2.42;;;7.90;99.90;;;;;;5001405;28;20041;-62
2023/03/26 09:11:51;;;;;;;11.20;2.05;;;7.90;99.90;;;;;;5026206;28;20037;-62
2023/03/26 09:14:36;;;;;;;8.85;2.28;;;7.90;99.90;;;;;;5031346;28;20041;-62
2023/03/26 09:17:28;;;;;;;13.50;4.40;;;7.90;99.90;;;;;;5031509;28;20037;-62
2023/03/26 09:20:18;;;;;;;10.57;3.65;;;7.90;99.90;;;;;;4993966;28;20053;-62
2023/03/26 09:23:16;;;;;;;12.95;2.70;;;7.90;99.90;;;;;;5013249;28;20045;-62
2023/03/26 09:25:54;;;;;;;13.10;4.28;;;8.00;99.90;;;;;;5033095;28;20037;-62
2023/03/26 09:28:34;;;;;;;12.60;2.85;;;7.90;99.90;;;;;;5043525;28;20051;-62
2023/03/26 09:31:17;;;;;;;12.25;3.10;;;7.80;99.90;;;;;;5014058;28;20041;-61
2023/03/26 09:33:54;;;;;;;10.88;2.25;;;7.80;99.90;;;;;;5012227;28;20049;-62
2023/03/26 09:36:22;;;;;;;16.13;3.35;;;7.80;99.90;;;;;;4995954;28;20041;-62
2023/03/26 09:38:55;;;;;;;12.65;3.20;;;7.80;99.90;;;;;;5030334;28;20045;-62
2023/03/26 09:41:42;;;;;;;10.68;2.30;;;7.80;99.90;;;;;;5029011;28;20060;-62
2023/03/26 09:44:17;;;;;;;9.82;2.60;;;7.80;99.90;;;;;;5013689;28;20041;-62
2023/03/26 09:46:50;;;;;;;12.50;2.72;;;7.80;99.90;;;;;;5030571;28;20128;-62
2023/03/26 09:49:21;;;;;;;9.55;3.17;;;7.80;99.90;;;;;;5011353;28;20084;-63
2023/03/26 09:51:50;;;;;;;10.43;2.53;;;7.80;99.90;;;;;;5045281;28;20049;-62
2023/03/26 09:54:43;;;;;;;13.77;3.80;;;7.80;99.90;;;;;;5035100;28;20076;-62
2023/03/26 09:57:08;;;;;;;15.63;3.42;;;7.80;99.90;;;;;;5013836;28;20112;-62
2023/03/26 09:59:43;;;;;;;12.88;2.97;;;7.80;99.90;;;;;;5024451;28;20554;-62
2023/03/26 10:02:39;;;;;;;15.63;2.90;;;7.70;99.90;;;;;;5030513;28;20044;-62
2023/03/26 10:05:14;;;;;;;11.93;2.45;;;7.70;99.90;;;;;;5048753;28;20485;-62
2023/03/26 10:07:57;;;;;;;13.45;3.85;;;7.70;99.90;;;;;;5049494;28;20175;-62
2023/03/26 10:10:48;;;;;;;14.50;3.25;;;7.80;99.90;;;;;;5028259;28;20045;-62
2023/03/26 10:13:29;;;;;;;10.52;2.63;;;7.90;99.90;;;;;;5030574;28;20080;-62
2023/03/26 10:16:16;;;;;;;11.05;3.08;;;7.90;99.90;;;;;;5028352;28;20060;-62
2023/03/26 10:19:09;;;;;;;13.57;2.65;;;8.10;99.90;;;;;;5028358;28;20045;-62
2023/03/26 10:21:46;;;;;;;12.68;2.83;;;8.00;99.90;;;;;;5017815;28;20037;-62
2023/03/26 10:24:24;;;;;;;9.68;2.70;;;8.10;99.90;;;;;;5029290;28;20128;-62
2023/03/26 10:26:53;;;;;;;9.65;2.38;;;8.10;99.90;;;;;;5031161;28;20608;-62
2023/03/26 10:29:32;;;;;;;13.65;2.42;;;8.10;99.90;;;;;;5014404;28;20087;-62
2023/03/26 10:32:09;;;;;;;9.55;2.40;;;8.10;99.90;;;;;;5035398;28;20108;-62
2023/03/26 10:34:45;;;;;;;10.75;3.25;;;8.10;99.90;;;;;;5053014;28;20045;-62
2023/03/26 10:37:29;;;;;;;11.43;4.20;;;8.10;99.90;;;;;;5016480;28;20044;-62
2023/03/26 10:40:16;;;;;;;14.60;2.70;;;8.10;99.90;;;;;;5035068;28;20065;-62
2023/03/26 10:42:59;;;;;;;9.93;2.65;;;8.20;99.90;;;;;;5053416;28;20278;-62
2023/03/26 10:45:32;;;;;;;7.55;3.03;;;8.20;99.90;;;;;;5034037;28;20045;-62
2023/03/26 10:48:09;;;;;;;11.23;2.97;;;8.10;99.90;;;;;;5027194;28;20562;-62
2023/03/26 10:50:54;;;;;;;9.45;2.22;;;8.10;99.90;;;;;;5014914;28;20041;-62
2023/03/26 10:53:44;;;;;;;10.40;2.80;;;8.20;99.90;;;;;;5047550;28;20041;-61
2023/03/26 10:56:31;;;;;;;8.48;2.20;;;8.30;99.90;;;;;;5015264;28;20055;-62
2023/03/26 10:59:05;;;;;;;9.65;2.13;;;8.40;99.90;;;;;;5032203;28;20567;-62
2023/03/26 11:01:42;;;;;;;11.13;2.25;;;8.50;99.90;;;;;;5015027;28;20045;-61
2023/03/26 11:04:54;;;;;;;8.85;2.17;;;8.40;99.90;;;;;;5030852;28;20494;-62
2023/03/26 11:07:32;;;;;;;11.13;3.05;;;8.40;99.90;;;;;;4998394;28;20367;-61
2023/03/26 11:10:20;;;;;;;12.93;3.83;;;8.40;99.90;;;;;;5013186;28;20091;-62
2023/03/26 11:12:57;;;;;;;7.32;2.22;;;8.40;99.90;;;;;;5032113;28;20041;-62
2023/03/26 11:15:51;;;;;;;11.63;2.40;;;8.30;99.90;;;;;;5030945;28;20429;-62
2023/03/26 11:18:31;;;;;;;11.88;2.45;;;8.40;99.90;;;;;;5014643;28;20095;-61
2023/03/26 11:21:27;;;;;;;11.50;2.35;;;8.30;99.90;;;;;;5014594;28;20080;-61
2023/03/26 11:23:59;;;;;;;12.00;2.67;;;8.30;99.90;;;;;;5017162;28;20092;-60
2023/03/26 11:27:23;;;;;;;6.25;2.05;;;8.30;99.90;;;;;;5047641;28;20086;-63
2023/03/26 11:30:11;;;;;;;11.35;2.30;;;8.30;99.90;;;;;;4951249;29;20070;-63
2023/03/26 11:32:54;;;;;;;12.18;2.50;;;8.30;99.90;;;;;;4951331;29;20039;-63
2023/03/26 11:35:20;;;;;;;9.02;2.78;;;8.20;99.90;;;;;;5021644;28;20498;-63
2023/03/26 11:37:52;;;;;;;10.80;2.35;;;8.20;99.90;;;;;;5025795;28;20037;-63
2023/03/26 11:40:28;;;;;;;16.08;3.05;;;8.30;99.90;;;;;;5050135;28;20092;-63
2023/03/26 11:43:03;;;;;;;7.45;2.47;;;8.40;99.90;;;;;;5034479;28;20045;-63
2023/03/26 11:45:34;;;;;;;9.63;3.58;;;8.60;99.90;;;;;;5034015;28;20037;-63
2023/03/26 11:48:15;;;;;;;10.77;3.28;;;8.60;99.90;;;;;;5033842;28;20155;-63
2023/03/26 11:50:46;;;;;;;10.50;2.67;;;8.50;99.90;;;;;;5017453;28;20041;-63
2023/03/26 11:53:16;;;;;;;11.52;2.88;;;8.60;99.90;;;;;;5051171;28;20029;-63
2023/03/26 11:56:13;;;;;;;11.02;2.53;;;8.60;99.90;;;;;;5004960;28;20063;-63
2023/03/26 11:58:59;;;;;;;8.02;1.98;;;8.50;99.90;;;;;;5017879;28;20049;-63
2023/03/26 12:01:39;;;;;;;12.43;2.72;;;8.50;99.90;;;;;;5013905;28;20052;-63
2023/03/26 12:04:12;;;;;;;8.07;1.90;;;8.40;99.90;;;;;;5027754;28;20056;-63
2023/03/26 12:06:38;;;;;;;9.10;2.50;;;8.40;99.90;;;;;;5017103;28;20094;-63
2023/03/26 12:09:16;;;;;;;11.75;2.20;;;8.40;99.90;;;;;;5015819;28;20045;-63
2023/03/26 12:11:43;;;;;;;8.10;2.17;;;8.50;99.00;;;;;;5032283;28;20041;-63
2023/03/26 12:14:20;;;;;;;13.32;2.17;;;8.50;99.60;;;;;;5027545;28;20040;-63
2023/03/26 12:17:00;;;;;;;9.75;2.75;;;8.50;99.50;;;;;;5016364;28;20040;-63
2023/03/26 12:19:32;;;;;;;6.80;1.73;;;8.60;99.30;;;;;;5031126;28;20405;-63
2023/03/26 12:21:58;;;;;;;9.15;2.33;;;8.60;99.30;;;;;;4996009;28;20051;-63
2023/03/26 12:24:30;;;;;;;10.95;2.60;;;8.60;99.20;;;;;;5013896;28;20045;-63
2023/03/26 12:27:22;;;;;;;7.90;2.22;;;8.50;98.70;;;;;;5030716;28;20044;-63
2023/03/26 12:29:58;;;;;;;8.95;2.30;;;8.50;98.70;;;;;;5011963;28;20083;-63
2023/03/26 12:32:30;;;;;;;8.43;2.15;;;8.50;99.10;;;;;;5050864;28;20155;-63
2023/03/26 12:34:56;;;;;;;10.20;2.13;;;8.60;99.30;;;;;;5032490;28;20047;-63
2023/03/26 12:37:52;;;;;;;11.07;2.25;;;8.70;99.10;;;;;;5049956;28;20029;-63
2023/03/26 12:40:35;;;;;;;9.10;2.60;;;8.70;98.80;;;;;;5029073;28;20064;-63
2023/03/26 12:43:42;;;;;;;16.13;2.88;;;8.60;98.80;;;;;;5015748;28;20044;-63
2023/03/26 12:46:19;;;;;;;10.98;2.17;;;8.60;99.20;;;;;;5019293;28;20049;-63
2023/03/26 12:48:46;;;;;;;8.98;2.33;;;8.50;98.40;;;;;;5031420;28;20037;-63
2023/03/26 12:51:17;;;;;;;10.88;2.88;;;8.50;99.30;;;;;;5035286;28;20575;-63
2023/03/26 12:54:05;;;;;;;11.98;2.22;;;8.40;99.30;;;;;;5019866;28;20037;-64
2023/03/26 12:56:37;;;;;;;9.73;2.22;;;8.40;99.10;;;;;;5018420;28;20120;-64
2023/03/26 12:59:24;;;;;;;9.52;1.90;;;8.40;99.00;;;;;;5012157;28;20056;-64
2023/03/26 13:02:00;;;;;;;10.80;1.75;;;8.40;98.40;;;;;;5013402;28;20056;-64
2023/03/26 13:04:45;;;;;;;7.93;1.67;;;8.40;98.30;;;;;;4995573;28;20049;-63
2023/03/26 13:07:26;;;;;;;5.82;1.50;;;8.50;97.90;;;;;;5029977;28;20049;-64
2023/03/26 13:10:14;;;;;;;8.68;2.17;;;8.50;98.50;;;;;;4994380;28;20215;-64
2023/03/26 13:12:58;;;;;;;7.57;2.50;;;8.50;98.50;;;;;;5012472;28;20148;-64
2023/03/26 13:15:36;;;;;;;13.95;2.50;;;8.50;98.90;;;;;;5012335;28;20107;-63
2023/03/26 13:18:36;;;;;;;12.25;2.25;;;8.40;98.70;;;;;;5030185;28;20486;-63
2023/03/26 13:21:23;;;;;;;7.70;1.73;;;8.30;98.40;;;;;;5019229;28;20561;-63
2023/03/26 13:23:57;;;;;;;8.07;2.03;;;8.20;98.70;;;;;;5019635;28;20073;-63